Date,TemperatureHighF,TemperatureAvgF,TemperatureLowF,DewpointHighF,DewpointAvgF,DewpointLowF,HumidityHigh,HumidityAvg,HumidityLow,PressureMaxIn,PressureMinIn,WindSpeedMaxMPH,WindSpeedAvgMPH,GustSpeedMaxMPH,PrecipitationSumIn
2013-1-1,50.0,40.8,34.5,31.5,27.5,22.3,78,61,35,30.37,30.28,8,3,9,0.00
2013-1-2,53.4,41.3,34.7,32.8,26.0,20.2,79,56,34,30.34,30.22,8,3,10,0.00
2013-1-3,52.3,41.5,34.2,33.3,28.7,24.7,78,62,36,30.34,30.25,7,3,9,0.00
2013-1-4,53.4,43.3,35.6,35.2,30.8,25.5,78,63,41,30.37,30.28,6,3,8,0.00
2013-1-5,54.9,44.5,37.4,40.3,34.8,30.9,87,70,47,30.34,30.16,6,2,7,0.00
2013-1-6,50.0,44.8,39.2,45.7,40.8,36.5,94,86,70,30.25,30.16,3,0,5,0.16
2013-1-7,51.1,42.5,37.8,39.8,36.8,31.9,95,81,60,30.34,30.19,8,1,8,0.00
2013-1-8,53.1,44.8,39.4,42.2,38.9,36.1,98,81,55,30.34,30.22,5,1,6,0.00
2013-1-9,44.2,42.2,41.2,41.5,39.9,38.7,93,91,86,30.25,30.16,5,2,6,0.00
2013-1-10,47.3,39.9,33.6,36.8,27.9,20.6,95,65,38,30.22,30.14,10,2,10,0.00
2013-1-11,48.6,37.3,30.7,28.5,25.1,19.7,83,64,34,30.31,30.19,6,2,8,0.00
2013-1-12,44.2,36.3,30.9,25.6,17.6,12.4,75,48,31,30.31,30.22,9,2,10,0.00
2013-1-13,45.1,35.4,28.2,20.7,15.4,7.8,67,45,31,30.31,30.22,6,2,9,0.00
2013-1-14,47.7,36.6,28.0,20.4,14.4,6.4,57,41,24,30.46,30.25,6,1,8,0.00
2013-1-15,49.8,39.1,31.5,27.5,22.4,17.8,69,52,36,30.58,30.46,8,3,8,0.00
2013-1-16,55.2,39.7,33.1,26.8,24.9,23.1,72,58,29,30.52,30.40,8,4,9,0.00
2013-1-17,44.6,44.1,43.5,29.5,28.0,26.8,57,53,50,30.28,30.28,6,4,9,0.00
2013-1-23,52.2,52.0,51.6,45.0,44.5,44.1,77,75,74,30.16,30.16,6,3,6,0.00
2013-1-24,53.6,50.9,48.0,50.7,48.7,46.4,94,92,89,30.25,30.19,2,0,6,0.04
2013-1-25,55.8,54.2,52.7,53.0,51.2,49.0,97,90,79,30.25,30.14,3,0,8,0.00
2013-1-26,57.0,53.8,51.4,42.5,36.3,32.6,59,52,46,30.05,30.02,7,4,9,0.00
2013-1-27,46.9,44.7,42.1,43.3,41.1,37.3,96,88,69,30.22,30.19,0,0,4,0.00
2013-1-29,45.5,45.3,45.0,33.7,33.3,33.0,63,63,62,30.34,30.34,3,1,4,0.00
2013-1-30,46.0,45.2,44.4,39.7,38.8,38.0,82,78,74,30.37,30.37,5,3,6,0.00
2013-2-2,63.9,58.2,46.2,35.7,34.5,33.3,61,42,34,30.37,30.31,5,2,9,0.00
2013-2-3,61.2,59.9,59.4,37.5,36.3,34.6,44,41,37,30.22,30.19,5,2,6,0.00
2013-2-4,45.1,43.3,42.3,30.2,29.7,29.3,62,58,55,30.22,30.22,6,5,8,0.00
2013-2-9,51.4,51.3,51.3,26.0,26.0,25.9,37,37,37,30.11,30.11,4,4,13,0.00
2013-2-10,52.3,50.4,48.2,26.7,25.5,24.4,39,38,36,30.19,30.16,8,2,8,0.00
2013-2-16,64.6,59.0,52.5,30.8,29.0,26.4,36,32,27,30.28,30.14,5,2,6,0.00
2013-4-14,71.4,59.4,50.7,43.1,37.9,27.6,75,51,22,29.23,29.18,5,1,6,0.00
2013-4-15,63.9,49.5,40.3,46.2,40.5,34.3,94,74,36,29.29,29.15,8,1,10,0.16
2013-4-16,66.6,52.9,38.7,40.1,27.1,19.3,94,40,20,29.53,29.26,12,3,15,0.16
2013-4-17,67.1,58.1,39.0,27.0,23.1,19.0,54,27,19,29.59,29.50,13,4,15,0.00
2013-4-18,73.0,63.3,52.2,38.3,32.7,25.9,53,34,18,29.62,29.53,8,2,8,0.00
2013-4-19,79.5,67.5,50.7,43.4,40.3,34.7,59,39,24,29.59,29.41,8,2,8,0.00
2013-4-20,79.5,67.1,51.8,46.0,37.8,29.3,72,37,19,29.44,29.32,9,3,11,0.00
2013-4-21,82.6,71.2,59.5,47.2,41.6,37.1,50,36,21,29.38,29.29,8,3,11,0.00
2013-4-22,85.3,70.8,54.1,49.0,38.5,29.2,55,33,15,29.32,29.21,10,2,16,0.00
2013-4-23,81.5,70.7,50.9,39.4,34.4,30.0,55,29,16,29.29,29.23,6,2,8,0.00
2013-5-27,68.2,61.6,57.2,55.7,51.3,46.7,94,70,49,29.41,29.32,7,2,8,0.04
2013-5-28,77.2,66.0,57.2,57.2,50.0,44.9,95,59,33,29.35,29.21,6,1,8,0.04
2013-5-29,79.2,69.3,57.4,56.0,48.0,40.5,86,50,28,29.29,29.21,8,1,8,0.04
2013-5-30,83.8,68.9,56.5,52.5,43.7,33.5,77,43,21,29.32,29.23,9,2,10,0.00
2013-5-31,90.1,77.4,58.3,47.5,40.9,34.7,53,29,17,29.32,29.21,9,2,11,0.00
2013-6-1,96.4,80.1,63.1,48.7,42.9,35.1,51,29,13,29.26,29.09,10,2,10,0.00
2013-6-2,96.4,82.9,66.0,51.0,44.9,35.5,50,29,13,29.66,29.03,8,2,48,0.00
2013-6-3,94.3,77.4,63.7,53.2,49.6,45.9,61,39,21,29.78,29.63,7,2,8,0.00
2013-6-4,85.5,71.7,58.5,52.5,49.5,46.7,66,47,30,29.89,29.75,8,2,10,0.00
2013-6-5,88.2,72.6,57.4,54.1,49.7,45.8,70,46,26,29.92,29.78,7,1,7,0.00
2013-6-6,91.6,79.5,60.1,58.9,52.5,45.8,69,41,26,29.86,29.75,7,1,7,0.00
2013-6-7,102.2,82.3,65.8,60.9,51.8,39.0,81,39,14,29.80,29.66,9,2,11,0.00
2013-6-8,106.2,90.3,74.5,56.8,51.9,44.3,45,29,16,29.72,29.60,9,2,10,0.00
2013-6-9,85.3,74.1,66.0,53.7,50.5,47.7,59,44,30,29.80,29.66,9,3,11,0.00
2013-6-10,77.0,66.0,58.5,52.3,49.3,46.7,80,56,35,29.89,29.78,8,2,10,0.00
2013-6-11,87.6,74.1,57.0,54.7,49.9,45.1,86,46,26,29.92,29.83,6,1,7,0.00
2013-6-12,88.5,73.2,61.0,52.1,44.0,37.0,68,37,22,29.92,29.83,6,2,6,0.00
2013-6-13,84.7,74.8,56.1,45.3,37.4,29.6,57,28,16,30.01,29.86,9,2,11,0.00
2013-6-14,88.7,73.7,58.1,45.5,38.3,31.6,44,29,15,29.92,29.75,9,2,11,0.00
2013-6-15,91.2,74.0,61.9,48.4,42.3,34.6,50,34,14,29.89,29.78,8,2,10,0.00
2013-6-16,91.6,78.7,59.7,48.5,41.9,31.6,60,30,14,29.98,29.89,6,1,6,0.00
2013-6-17,89.4,74.8,59.4,49.4,46.9,40.9,69,40,20,29.98,29.89,8,3,9,0.00
2013-6-18,81.1,68.0,57.6,51.5,45.7,39.4,77,47,27,29.95,29.83,8,3,10,0.00
2013-6-19,78.8,66.1,54.7,46.2,37.3,26.5,70,37,17,29.98,29.89,9,2,11,0.00
2013-6-20,85.3,74.0,56.8,45.5,37.5,29.2,43,28,16,29.92,29.86,9,2,11,0.00
2013-6-21,89.1,76.8,59.7,47.6,40.4,35.4,47,28,17,29.89,29.80,10,2,11,0.00
2013-6-22,93.0,77.5,62.2,48.4,40.9,31.6,51,29,14,29.86,29.75,8,2,10,0.00
2013-6-23,79.2,70.0,63.3,57.2,51.8,38.6,74,54,32,29.80,29.72,8,3,9,0.00
2013-6-24,70.2,64.0,61.3,63.0,59.8,55.1,99,87,68,29.89,29.75,6,1,9,0.39
2013-6-25,73.2,68.7,61.3,67.6,63.4,59.6,99,84,74,29.95,29.86,5,0,6,0.04
2013-6-26,88.2,77.0,63.5,63.8,59.0,54.5,92,57,35,30.01,29.92,6,1,8,0.04
2013-6-27,95.4,81.4,65.5,63.1,57.6,52.0,88,49,24,30.04,29.92,9,1,9,0.00
2013-6-28,102.0,86.5,72.0,61.5,54.4,42.6,66,37,14,29.98,29.83,9,2,10,0.00
2013-6-29,104.9,89.5,77.0,58.0,51.2,42.6,42,29,14,29.86,29.75,9,3,10,0.00
2013-6-30,106.0,90.1,74.7,59.5,52.5,42.2,52,30,13,29.78,29.69,8,2,9,0.00
2013-7-1,106.2,88.8,73.9,63.0,55.1,44.2,59,34,14,29.78,29.72,7,2,9,0.00
2013-7-2,106.3,89.8,74.1,63.3,52.5,44.4,56,30,16,29.83,29.75,9,2,9,0.00
2013-7-3,105.1,95.2,77.7,63.0,58.4,44.8,52,31,19,29.83,29.66,8,1,8,0.00
2013-7-4,104.5,90.1,79.2,67.4,61.3,53.9,65,41,19,29.72,29.66,8,1,8,0.00
2013-7-5,92.1,81.2,71.8,50.4,49.2,47.2,43,34,24,29.69,29.63,8,2,8,0.00
2013-7-6,92.7,80.0,62.1,55.5,48.9,43.1,75,36,19,29.75,29.66,6,1,6,0.00
2013-7-7,96.1,79.8,64.6,53.6,49.0,42.2,57,37,16,29.78,29.72,5,2,6,0.00
2013-7-12,97.7,88.4,65.5,49.5,43.6,35.6,48,23,16,29.89,29.83,6,1,8,0.00
2013-7-13,95.7,79.2,68.9,45.4,41.7,36.2,40,28,16,29.89,29.83,6,1,8,0.00
2013-7-14,97.5,80.8,67.8,52.5,46.2,40.4,44,31,16,29.92,29.80,6,2,8,0.00
2013-7-15,90.7,75.6,64.4,53.0,46.6,36.2,55,37,18,29.83,29.72,6,2,8,0.00
2013-7-16,84.2,72.4,58.5,53.2,49.2,43.4,77,46,29,29.95,29.78,6,2,8,0.00
2013-7-17,91.2,76.2,57.6,54.7,49.8,37.4,77,43,20,30.01,29.92,6,1,8,0.00
2013-7-18,97.2,79.0,65.8,54.6,44.8,33.3,49,32,16,29.98,29.83,8,2,9,0.00
2013-7-19,100.4,84.2,67.5,55.1,47.9,38.8,45,30,15,29.86,29.72,6,2,7,0.00
2013-7-20,102.2,85.4,70.7,57.4,52.1,46.2,58,34,17,29.78,29.63,6,1,6,0.00
2013-7-21,97.2,83.0,70.0,56.4,50.5,42.6,53,34,21,29.83,29.69,6,2,9,0.00
2013-7-22,95.2,77.8,66.9,52.8,45.6,34.7,53,34,17,29.89,29.80,6,1,8,0.00
2013-7-23,96.1,82.6,71.2,49.6,43.8,36.0,34,26,16,29.95,29.83,7,2,8,0.00
2013-7-24,98.4,83.2,69.8,56.9,51.1,41.7,53,34,21,29.92,29.80,6,1,7,0.00
2013-7-25,102.0,85.7,71.1,61.4,55.9,49.5,65,39,22,29.92,29.83,6,1,8,0.00
2013-7-26,97.7,82.7,68.9,57.0,53.0,49.6,55,37,26,29.98,29.89,6,1,6,0.00
2013-7-27,94.6,80.0,68.0,56.2,52.7,47.1,60,40,27,29.92,29.78,5,2,8,0.00
2013-7-28,94.5,78.8,64.2,55.9,51.1,43.0,59,40,27,29.80,29.69,6,2,8,0.00
2013-7-29,85.8,72.9,61.2,52.9,49.2,43.3,68,45,29,29.95,29.75,6,2,8,0.00
2013-7-30,90.5,74.0,58.5,54.2,50.4,43.8,77,47,22,30.01,29.92,5,1,6,0.00
2013-7-31,90.7,77.0,63.9,52.2,48.0,41.6,57,38,20,29.98,29.89,6,2,9,0.00
2013-8-1,87.8,75.3,62.2,51.0,46.3,39.7,56,37,21,29.98,29.83,8,2,8,0.00
2013-8-2,92.1,77.5,59.7,52.1,44.7,38.6,50,33,20,29.89,29.80,6,2,8,0.00
2013-8-3,92.8,77.0,61.9,51.9,45.2,37.8,50,35,17,29.89,29.80,6,2,6,0.00
2013-8-4,91.6,75.8,63.1,53.4,49.3,43.3,55,41,22,29.92,29.86,5,1,6,0.00
2013-8-5,91.2,73.2,61.7,53.4,46.6,38.9,60,41,18,29.95,29.83,5,1,6,0.00
2013-8-6,89.1,74.3,62.6,52.8,49.1,42.4,68,43,25,29.98,29.86,6,2,8,0.00
2013-8-7,80.6,67.9,59.7,55.0,53.1,48.1,83,62,34,30.04,29.95,6,3,8,0.00
2013-8-8,85.1,68.8,56.7,57.5,51.7,44.1,92,59,27,29.98,29.83,5,1,7,0.00
2013-8-9,85.8,70.0,57.0,54.8,51.3,47.1,84,55,29,29.92,29.83,5,2,8,0.00
2013-8-10,87.4,72.7,60.3,54.7,51.8,47.7,76,50,28,29.98,29.89,5,1,6,0.00
2013-8-11,90.0,74.1,59.7,54.9,50.8,42.2,71,48,21,29.95,29.83,5,1,7,0.00
2013-8-12,90.9,76.1,64.2,53.2,46.2,36.2,58,37,18,29.92,29.86,7,1,8,0.00
2013-8-13,95.0,77.4,64.0,52.6,44.7,39.3,45,33,19,29.92,29.83,6,3,8,0.00
2013-8-14,95.9,78.3,65.5,52.2,45.5,39.1,46,34,16,29.89,29.80,6,2,7,0.00
2013-8-15,72.9,71.1,70.0,49.8,49.0,47.1,47,45,44,29.86,29.83,0,0,4,0.00
2013-8-19,85.1,82.2,79.7,58.1,55.8,54.3,42,41,39,29.18,29.15,6,1,7,0.00
2013-8-21,90.9,76.4,66.6,54.0,50.8,46.8,54,42,22,29.26,29.18,6,2,8,0.00
2013-9-21,70.7,62.2,55.0,58.9,55.2,50.3,93,79,49,29.23,29.18,6,2,8,0.04
2013-9-22,55.0,53.1,51.1,52.9,51.6,50.3,98,95,92,29.29,29.23,4,1,8,0.04
2013-12-1,45.3,45.1,45.0,35.6,35.4,35.2,69,68,68,29.65,29.65,5,4,6,0.00